sensor_id;sensor_type;location;lat;lon;timestamp;P1;durP1;ratioP1;P2;durP2;ratioP2
63259;SDS011;49390;51.380;0.098;2023-06-26T00:02:18;5.18;;;2.60;;
63259;SDS011;49390;51.380;0.098;2023-06-26T00:04:49;8.82;;;2.45;;
63259;SDS011;49390;51.380;0.098;2023-06-26T00:07:21;4.45;;;2.17;;
63259;SDS011;49390;51.380;0.098;2023-06-26T00:09:52;8.38;;;3.00;;
63259;SDS011;49390;51.380;0.098;2023-06-26T00:12:19;5.55;;;2.30;;
63259;SDS011;49390;51.380;0.098;2023-06-26T00:14:50;6.40;;;2.30;;
63259;SDS011;49390;51.380;0.098;2023-06-26T00:17:18;5.70;;;2.45;;
63259;SDS011;49390;51.380;0.098;2023-06-26T00:19:51;4.65;;;2.25;;
63259;SDS011;49390;51.380;0.098;2023-06-26T00:22:20;8.80;;;2.45;;
63259;SDS011;49390;51.380;0.098;2023-06-26T00:24:49;7.70;;;2.55;;
63259;SDS011;49390;51.380;0.098;2023-06-26T00:27:17;3.88;;;2.20;;
63259;SDS011;49390;51.380;0.098;2023-06-26T00:29:45;6.43;;;2.60;;
63259;SDS011;49390;51.380;0.098;2023-06-26T00:32:16;7.75;;;2.22;;
63259;SDS011;49390;51.380;0.098;2023-06-26T00:34:47;4.80;;;2.20;;
63259;SDS011;49390;51.380;0.098;2023-06-26T00:37:16;6.13;;;2.38;;
63259;SDS011;49390;51.380;0.098;2023-06-26T00:39:47;4.75;;;2.33;;
63259;SDS011;49390;51.380;0.098;2023-06-26T00:42:18;6.43;;;2.20;;
63259;SDS011;49390;51.380;0.098;2023-06-26T00:44:48;4.90;;;2.15;;
63259;SDS011;49390;51.380;0.098;2023-06-26T00:47:19;6.03;;;2.10;;
63259;SDS011;49390;51.380;0.098;2023-06-26T00:49:49;4.63;;;2.30;;
63259;SDS011;49390;51.380;0.098;2023-06-26T00:52:20;4.53;;;2.38;;
63259;SDS011;49390;51.380;0.098;2023-06-26T00:54:49;5.25;;;2.30;;
63259;SDS011;49390;51.380;0.098;2023-06-26T00:57:24;6.63;;;2.88;;
63259;SDS011;49390;51.380;0.098;2023-06-26T00:59:53;5.13;;;2.47;;
63259;SDS011;49390;51.380;0.098;2023-06-26T01:02:21;7.63;;;2.40;;
63259;SDS011;49390;51.380;0.098;2023-06-26T01:04:52;6.37;;;2.60;;
63259;SDS011;49390;51.380;0.098;2023-06-26T01:07:25;6.13;;;2.38;;
63259;SDS011;49390;51.380;0.098;2023-06-26T01:09:57;6.45;;;2.60;;
63259;SDS011;49390;51.380;0.098;2023-06-26T01:12:28;6.85;;;2.65;;
63259;SDS011;49390;51.380;0.098;2023-06-26T01:15:01;5.78;;;2.70;;
63259;SDS011;49390;51.380;0.098;2023-06-26T01:17:32;7.75;;;2.58;;
63259;SDS011;49390;51.380;0.098;2023-06-26T01:20:05;7.22;;;2.85;;
63259;SDS011;49390;51.380;0.098;2023-06-26T01:22:36;6.70;;;2.70;;
63259;SDS011;49390;51.380;0.098;2023-06-26T01:28:14;6.90;;;2.90;;
63259;SDS011;49390;51.380;0.098;2023-06-26T01:30:45;5.47;;;2.75;;
63259;SDS011;49390;51.380;0.098;2023-06-26T01:33:18;4.88;;;2.50;;
63259;SDS011;49390;51.380;0.098;2023-06-26T01:35:49;7.72;;;3.10;;
63259;SDS011;49390;51.380;0.098;2023-06-26T01:38:22;5.75;;;2.70;;
63259;SDS011;49390;51.380;0.098;2023-06-26T01:40:51;5.68;;;2.60;;
63259;SDS011;49390;51.380;0.098;2023-06-26T01:46:18;7.43;;;2.80;;
63259;SDS011;49390;51.380;0.098;2023-06-26T01:52:07;6.82;;;2.63;;
63259;SDS011;49390;51.380;0.098;2023-06-26T01:57:41;6.33;;;2.60;;
63259;SDS011;49390;51.380;0.098;2023-06-26T02:00:09;9.32;;;3.05;;
63259;SDS011;49390;51.380;0.098;2023-06-26T02:02:41;8.48;;;2.70;;
63259;SDS011;49390;51.380;0.098;2023-06-26T02:05:13;6.85;;;2.90;;
63259;SDS011;49390;51.380;0.098;2023-06-26T02:07:46;4.75;;;2.60;;
63259;SDS011;49390;51.380;0.098;2023-06-26T02:10:14;5.72;;;2.83;;
63259;SDS011;49390;51.380;0.098;2023-06-26T02:12:43;8.18;;;3.00;;
63259;SDS011;49390;51.380;0.098;2023-06-26T02:15:13;8.80;;;2.80;;
63259;SDS011;49390;51.380;0.098;2023-06-26T02:17:41;7.68;;;3.13;;
63259;SDS011;49390;51.380;0.098;2023-06-26T02:20:15;9.07;;;2.90;;
63259;SDS011;49390;51.380;0.098;2023-06-26T02:22:50;4.97;;;3.08;;
63259;SDS011;49390;51.380;0.098;2023-06-26T02:25:18;7.32;;;2.65;;
63259;SDS011;49390;51.380;0.098;2023-06-26T02:27:46;7.43;;;2.90;;
63259;SDS011;49390;51.380;0.098;2023-06-26T02:30:19;8.82;;;3.00;;
63259;SDS011;49390;51.380;0.098;2023-06-26T02:32:47;9.23;;;2.95;;
63259;SDS011;49390;51.380;0.098;2023-06-26T02:35:18;5.07;;;2.70;;
63259;SDS011;49390;51.380;0.098;2023-06-26T02:37:46;8.73;;;2.90;;
63259;SDS011;49390;51.380;0.098;2023-06-26T02:40:17;9.82;;;3.20;;
63259;SDS011;49390;51.380;0.098;2023-06-26T02:42:48;11.02;;;3.20;;
63259;SDS011;49390;51.380;0.098;2023-06-26T02:45:23;7.57;;;2.72;;
63259;SDS011;49390;51.380;0.098;2023-06-26T02:47:52;9.13;;;3.30;;
63259;SDS011;49390;51.380;0.098;2023-06-26T02:50:20;6.03;;;2.80;;
63259;SDS011;49390;51.380;0.098;2023-06-26T02:53:04;7.10;;;2.95;;
63259;SDS011;49390;51.380;0.098;2023-06-26T02:55:35;9.13;;;3.22;;
63259;SDS011;49390;51.380;0.098;2023-06-26T02:58:04;8.23;;;2.92;;
63259;SDS011;49390;51.380;0.098;2023-06-26T03:00:35;8.95;;;3.28;;
63259;SDS011;49390;51.380;0.098;2023-06-26T03:03:16;6.70;;;2.85;;
63259;SDS011;49390;51.380;0.098;2023-06-26T03:05:47;7.72;;;3.25;;
63259;SDS011;49390;51.380;0.098;2023-06-26T03:08:15;8.93;;;3.47;;
63259;SDS011;49390;51.380;0.098;2023-06-26T03:10:48;12.55;;;3.58;;
63259;SDS011;49390;51.380;0.098;2023-06-26T03:13:17;7.93;;;3.03;;
63259;SDS011;49390;51.380;0.098;2023-06-26T03:15:45;8.77;;;3.10;;
63259;SDS011;49390;51.380;0.098;2023-06-26T03:18:22;11.07;;;3.30;;
63259;SDS011;49390;51.380;0.098;2023-06-26T03:20:50;6.85;;;3.03;;
63259;SDS011;49390;51.380;0.098;2023-06-26T03:23:24;6.57;;;3.20;;
63259;SDS011;49390;51.380;0.098;2023-06-26T03:25:54;8.85;;;2.95;;
63259;SDS011;49390;51.380;0.098;2023-06-26T03:28:30;5.65;;;2.85;;
63259;SDS011;49390;51.380;0.098;2023-06-26T03:31:03;8.68;;;3.03;;
63259;SDS011;49390;51.380;0.098;2023-06-26T03:33:33;9.53;;;3.00;;
63259;SDS011;49390;51.380;0.098;2023-06-26T03:36:02;8.60;;;3.22;;
63259;SDS011;49390;51.380;0.098;2023-06-26T03:38:30;8.32;;;3.47;;
63259;SDS011;49390;51.380;0.098;2023-06-26T03:40:59;7.25;;;3.00;;
63259;SDS011;49390;51.380;0.098;2023-06-26T03:43:30;10.43;;;3.00;;
63259;SDS011;49390;51.380;0.098;2023-06-26T03:48:40;8.52;;;2.95;;
63259;SDS011;49390;51.380;0.098;2023-06-26T03:51:10;11.50;;;3.97;;
63259;SDS011;49390;51.380;0.098;2023-06-26T03:53:41;7.25;;;2.88;;
63259;SDS011;49390;51.380;0.098;2023-06-26T03:56:11;6.22;;;2.67;;
63259;SDS011;49390;51.380;0.098;2023-06-26T03:58:43;10.48;;;3.13;;
63259;SDS011;49390;51.380;0.098;2023-06-26T04:01:15;11.10;;;2.80;;
63259;SDS011;49390;51.380;0.098;2023-06-26T04:03:44;5.53;;;2.55;;
63259;SDS011;49390;51.380;0.098;2023-06-26T04:06:15;7.88;;;2.88;;
63259;SDS011;49390;51.380;0.098;2023-06-26T04:08:49;5.97;;;3.05;;
63259;SDS011;49390;51.380;0.098;2023-06-26T04:11:17;10.48;;;3.53;;
63259;SDS011;49390;51.380;0.098;2023-06-26T04:16:16;7.30;;;2.50;;
63259;SDS011;49390;51.380;0.098;2023-06-26T04:18:44;7.72;;;2.75;;
63259;SDS011;49390;51.380;0.098;2023-06-26T04:21:12;10.43;;;3.60;;
63259;SDS011;49390;51.380;0.098;2023-06-26T04:23:41;9.65;;;3.50;;
63259;SDS011;49390;51.380;0.098;2023-06-26T04:26:09;6.22;;;2.70;;
63259;SDS011;49390;51.380;0.098;2023-06-26T04:28:45;7.93;;;2.65;;
63259;SDS011;49390;51.380;0.098;2023-06-26T04:33:36;8.63;;;3.05;;
63259;SDS011;49390;51.380;0.098;2023-06-26T04:36:09;7.90;;;3.10;;
63259;SDS011;49390;51.380;0.098;2023-06-26T04:38:38;8.82;;;3.00;;
63259;SDS011;49390;51.380;0.098;2023-06-26T04:41:13;7.38;;;2.55;;
63259;SDS011;49390;51.380;0.098;2023-06-26T04:43:43;9.27;;;3.03;;
63259;SDS011;49390;51.380;0.098;2023-06-26T04:46:11;6.32;;;2.70;;
63259;SDS011;49390;51.380;0.098;2023-06-26T04:48:44;11.68;;;3.17;;
63259;SDS011;49390;51.380;0.098;2023-06-26T04:51:12;10.48;;;2.70;;
63259;SDS011;49390;51.380;0.098;2023-06-26T04:53:44;11.15;;;3.00;;
63259;SDS011;49390;51.380;0.098;2023-06-26T04:56:17;9.05;;;2.60;;
63259;SDS011;49390;51.380;0.098;2023-06-26T04:58:47;6.90;;;2.92;;
63259;SDS011;49390;51.380;0.098;2023-06-26T05:01:15;9.45;;;3.10;;
63259;SDS011;49390;51.380;0.098;2023-06-26T05:03:43;10.32;;;2.90;;
63259;SDS011;49390;51.380;0.098;2023-06-26T05:06:15;6.95;;;2.78;;
63259;SDS011;49390;51.380;0.098;2023-06-26T05:08:45;7.47;;;3.10;;
63259;SDS011;49390;51.380;0.098;2023-06-26T05:11:15;7.05;;;2.92;;
63259;SDS011;49390;51.380;0.098;2023-06-26T05:13:45;8.93;;;3.47;;
63259;SDS011;49390;51.380;0.098;2023-06-26T05:16:16;7.78;;;2.70;;
63259;SDS011;49390;51.380;0.098;2023-06-26T05:18:45;7.70;;;3.47;;
63259;SDS011;49390;51.380;0.098;2023-06-26T05:21:16;11.10;;;3.30;;
63259;SDS011;49390;51.380;0.098;2023-06-26T05:23:44;11.52;;;2.90;;
63259;SDS011;49390;51.380;0.098;2023-06-26T05:26:15;5.63;;;2.53;;
63259;SDS011;49390;51.380;0.098;2023-06-26T05:28:48;9.27;;;2.90;;
63259;SDS011;49390;51.380;0.098;2023-06-26T05:31:16;6.28;;;2.75;;
63259;SDS011;49390;51.380;0.098;2023-06-26T05:33:49;8.82;;;2.95;;
63259;SDS011;49390;51.380;0.098;2023-06-26T05:36:19;7.10;;;2.60;;
63259;SDS011;49390;51.380;0.098;2023-06-26T05:38:49;8.43;;;2.80;;
63259;SDS011;49390;51.380;0.098;2023-06-26T05:41:19;6.47;;;3.15;;
63259;SDS011;49390;51.380;0.098;2023-06-26T05:43:50;6.07;;;2.57;;
63259;SDS011;49390;51.380;0.098;2023-06-26T05:46:28;8.38;;;3.10;;
63259;SDS011;49390;51.380;0.098;2023-06-26T05:49:03;10.93;;;2.83;;
63259;SDS011;49390;51.380;0.098;2023-06-26T05:51:35;7.95;;;2.90;;
63259;SDS011;49390;51.380;0.098;2023-06-26T05:54:11;11.77;;;3.22;;
63259;SDS011;49390;51.380;0.098;2023-06-26T05:56:40;11.88;;;2.97;;
63259;SDS011;49390;51.380;0.098;2023-06-26T05:59:10;7.30;;;3.22;;
63259;SDS011;49390;51.380;0.098;2023-06-26T06:01:42;9.75;;;3.30;;
63259;SDS011;49390;51.380;0.098;2023-06-26T06:04:12;7.63;;;2.80;;
63259;SDS011;49390;51.380;0.098;2023-06-26T06:06:40;7.18;;;3.25;;
63259;SDS011;49390;51.380;0.098;2023-06-26T06:09:11;7.40;;;2.92;;
63259;SDS011;49390;51.380;0.098;2023-06-26T06:11:41;7.47;;;3.15;;
63259;SDS011;49390;51.380;0.098;2023-06-26T06:14:09;10.07;;;3.38;;
63259;SDS011;49390;51.380;0.098;2023-06-26T06:16:37;8.23;;;3.05;;
63259;SDS011;49390;51.380;0.098;2023-06-26T06:19:05;5.25;;;2.80;;
63259;SDS011;49390;51.380;0.098;2023-06-26T06:21:40;7.35;;;2.78;;
63259;SDS011;49390;51.380;0.098;2023-06-26T06:24:08;9.20;;;3.05;;
63259;SDS011;49390;51.380;0.098;2023-06-26T06:26:37;8.52;;;3.17;;
63259;SDS011;49390;51.380;0.098;2023-06-26T06:29:04;8.40;;;3.03;;
63259;SDS011;49390;51.380;0.098;2023-06-26T06:31:33;9.25;;;3.10;;
63259;SDS011;49390;51.380;0.098;2023-06-26T06:34:01;9.45;;;3.45;;
63259;SDS011;49390;51.380;0.098;2023-06-26T06:36:34;7.85;;;3.50;;
63259;SDS011;49390;51.380;0.098;2023-06-26T06:39:02;9.30;;;3.03;;
63259;SDS011;49390;51.380;0.098;2023-06-26T06:41:33;7.10;;;3.08;;
63259;SDS011;49390;51.380;0.098;2023-06-26T06:44:05;8.98;;;2.90;;
63259;SDS011;49390;51.380;0.098;2023-06-26T06:46:36;9.73;;;3.15;;
63259;SDS011;49390;51.380;0.098;2023-06-26T06:49:06;8.10;;;3.03;;
63259;SDS011;49390;51.380;0.098;2023-06-26T06:51:37;8.23;;;2.83;;
63259;SDS011;49390;51.380;0.098;2023-06-26T06:54:08;11.05;;;3.13;;
63259;SDS011;49390;51.380;0.098;2023-06-26T06:56:38;9.73;;;2.92;;
63259;SDS011;49390;51.380;0.098;2023-06-26T06:59:11;9.52;;;2.80;;
63259;SDS011;49390;51.380;0.098;2023-06-26T07:01:44;9.35;;;2.60;;
63259;SDS011;49390;51.380;0.098;2023-06-26T07:04:14;8.15;;;2.50;;
63259;SDS011;49390;51.380;0.098;2023-06-26T07:06:47;8.25;;;2.70;;
63259;SDS011;49390;51.380;0.098;2023-06-26T07:09:17;6.15;;;2.55;;
63259;SDS011;49390;51.380;0.098;2023-06-26T07:12:36;7.85;;;2.47;;
63259;SDS011;49390;51.380;0.098;2023-06-26T07:15:05;7.07;;;2.88;;
63259;SDS011;49390;51.380;0.098;2023-06-26T07:17:34;7.93;;;2.70;;
63259;SDS011;49390;51.380;0.098;2023-06-26T07:20:03;5.75;;;2.60;;
63259;SDS011;49390;51.380;0.098;2023-06-26T07:22:37;6.82;;;2.53;;
63259;SDS011;49390;51.380;0.098;2023-06-26T07:25:06;7.40;;;2.50;;
63259;SDS011;49390;51.380;0.098;2023-06-26T07:27:40;9.43;;;2.63;;
63259;SDS011;49390;51.380;0.098;2023-06-26T07:30:09;5.85;;;2.45;;
63259;SDS011;49390;51.380;0.098;2023-06-26T07:32:37;8.77;;;2.70;;
63259;SDS011;49390;51.380;0.098;2023-06-26T07:35:10;5.28;;;2.30;;
63259;SDS011;49390;51.380;0.098;2023-06-26T07:37:37;5.60;;;2.38;;
63259;SDS011;49390;51.380;0.098;2023-06-26T07:40:13;6.55;;;2.80;;
63259;SDS011;49390;51.380;0.098;2023-06-26T07:42:41;7.70;;;2.50;;
63259;SDS011;49390;51.380;0.098;2023-06-26T07:45:09;6.85;;;2.50;;
63259;SDS011;49390;51.380;0.098;2023-06-26T07:47:42;6.43;;;2.72;;
63259;SDS011;49390;51.380;0.098;2023-06-26T07:50:13;5.30;;;2.30;;
63259;SDS011;49390;51.380;0.098;2023-06-26T07:52:49;8.82;;;3.15;;
63259;SDS011;49390;51.380;0.098;2023-06-26T07:55:17;6.80;;;2.45;;
63259;SDS011;49390;51.380;0.098;2023-06-26T07:57:45;6.00;;;2.35;;
63259;SDS011;49390;51.380;0.098;2023-06-26T08:00:13;5.78;;;2.17;;
63259;SDS011;49390;51.380;0.098;2023-06-26T08:02:41;8.05;;;2.40;;
63259;SDS011;49390;51.380;0.098;2023-06-26T08:05:10;4.93;;;2.20;;
63259;SDS011;49390;51.380;0.098;2023-06-26T08:07:38;5.65;;;2.28;;
63259;SDS011;49390;51.380;0.098;2023-06-26T08:10:09;7.57;;;2.70;;
63259;SDS011;49390;51.380;0.098;2023-06-26T08:12:39;5.75;;;2.20;;
63259;SDS011;49390;51.380;0.098;2023-06-26T08:17:43;6.60;;;2.30;;
63259;SDS011;49390;51.380;0.098;2023-06-26T08:20:17;6.78;;;2.40;;
63259;SDS011;49390;51.380;0.098;2023-06-26T08:22:50;6.53;;;2.50;;
63259;SDS011;49390;51.380;0.098;2023-06-26T08:25:21;5.57;;;2.60;;
63259;SDS011;49390;51.380;0.098;2023-06-26T08:27:49;4.22;;;2.10;;
63259;SDS011;49390;51.380;0.098;2023-06-26T08:30:22;10.80;;;2.47;;
63259;SDS011;49390;51.380;0.098;2023-06-26T08:32:55;6.50;;;2.28;;
63259;SDS011;49390;51.380;0.098;2023-06-26T08:35:25;4.30;;;2.13;;
63259;SDS011;49390;51.380;0.098;2023-06-26T08:37:53;5.97;;;2.20;;
63259;SDS011;49390;51.380;0.098;2023-06-26T08:40:26;6.30;;;2.42;;
63259;SDS011;49390;51.380;0.098;2023-06-26T08:42:59;5.03;;;2.22;;
63259;SDS011;49390;51.380;0.098;2023-06-26T08:45:33;7.57;;;2.10;;
63259;SDS011;49390;51.380;0.098;2023-06-26T08:48:09;6.50;;;2.35;;
63259;SDS011;49390;51.380;0.098;2023-06-26T08:50:38;6.40;;;2.38;;
63259;SDS011;49390;51.380;0.098;2023-06-26T08:53:13;5.78;;;2.25;;
63259;SDS011;49390;51.380;0.098;2023-06-26T08:55:46;4.55;;;1.98;;
63259;SDS011;49390;51.380;0.098;2023-06-26T08:58:18;7.53;;;2.72;;
63259;SDS011;49390;51.380;0.098;2023-06-26T09:00:48;5.82;;;2.15;;
63259;SDS011;49390;51.380;0.098;2023-06-26T09:03:17;4.88;;;2.17;;
63259;SDS011;49390;51.380;0.098;2023-06-26T09:05:47;4.40;;;2.25;;
63259;SDS011;49390;51.380;0.098;2023-06-26T09:08:17;4.47;;;2.20;;
63259;SDS011;49390;51.380;0.098;2023-06-26T09:10:47;14.40;;;2.72;;
63259;SDS011;49390;51.380;0.098;2023-06-26T09:13:18;6.80;;;2.38;;
63259;SDS011;49390;51.380;0.098;2023-06-26T09:15:57;4.90;;;2.25;;
63259;SDS011;49390;51.380;0.098;2023-06-26T09:18:25;7.22;;;2.40;;
63259;SDS011;49390;51.380;0.098;2023-06-26T09:20:53;4.50;;;2.33;;
63259;SDS011;49390;51.380;0.098;2023-06-26T09:23:24;6.25;;;2.20;;
63259;SDS011;49390;51.380;0.098;2023-06-26T09:25:58;5.88;;;2.05;;
63259;SDS011;49390;51.380;0.098;2023-06-26T09:28:29;7.47;;;2.17;;
63259;SDS011;49390;51.380;0.098;2023-06-26T09:31:04;4.22;;;1.90;;
63259;SDS011;49390;51.380;0.098;2023-06-26T09:33:38;5.32;;;2.00;;
63259;SDS011;49390;51.380;0.098;2023-06-26T09:36:18;4.40;;;2.20;;
63259;SDS011;49390;51.380;0.098;2023-06-26T09:38:47;4.13;;;2.00;;
63259;SDS011;49390;51.380;0.098;2023-06-26T09:41:18;10.65;;;3.28;;
63259;SDS011;49390;51.380;0.098;2023-06-26T09:43:46;4.05;;;1.90;;
63259;SDS011;49390;51.380;0.098;2023-06-26T09:46:28;4.82;;;2.10;;
63259;SDS011;49390;51.380;0.098;2023-06-26T09:51:35;5.25;;;2.10;;
63259;SDS011;49390;51.380;0.098;2023-06-26T09:54:06;5.55;;;2.00;;
63259;SDS011;49390;51.380;0.098;2023-06-26T09:56:37;4.93;;;1.80;;
63259;SDS011;49390;51.380;0.098;2023-06-26T09:59:08;5.32;;;1.90;;
63259;SDS011;49390;51.380;0.098;2023-06-26T10:01:39;5.95;;;2.10;;
63259;SDS011;49390;51.380;0.098;2023-06-26T10:04:08;4.60;;;2.15;;
63259;SDS011;49390;51.380;0.098;2023-06-26T10:06:41;3.72;;;2.03;;
63259;SDS011;49390;51.380;0.098;2023-06-26T10:09:19;5.88;;;1.98;;
63259;SDS011;49390;51.380;0.098;2023-06-26T10:11:55;4.65;;;1.90;;
63259;SDS011;49390;51.380;0.098;2023-06-26T10:14:29;5.47;;;2.20;;
63259;SDS011;49390;51.380;0.098;2023-06-26T10:17:13;3.22;;;1.83;;
63259;SDS011;49390;51.380;0.098;2023-06-26T10:19:47;4.03;;;1.80;;
63259;SDS011;49390;51.380;0.098;2023-06-26T10:22:20;5.18;;;2.00;;
63259;SDS011;49390;51.380;0.098;2023-06-26T10:24:55;4.65;;;2.00;;
63259;SDS011;49390;51.380;0.098;2023-06-26T10:27:38;3.67;;;1.80;;
63259;SDS011;49390;51.380;0.098;2023-06-26T10:30:11;3.50;;;1.83;;
63259;SDS011;49390;51.380;0.098;2023-06-26T10:32:43;3.38;;;1.80;;
63259;SDS011;49390;51.380;0.098;2023-06-26T10:35:12;3.53;;;1.73;;
63259;SDS011;49390;51.380;0.098;2023-06-26T10:40:13;2.97;;;1.80;;
63259;SDS011;49390;51.380;0.098;2023-06-26T10:42:48;5.55;;;1.92;;
63259;SDS011;49390;51.380;0.098;2023-06-26T10:45:19;4.07;;;1.92;;
63259;SDS011;49390;51.380;0.098;2023-06-26T10:47:48;5.55;;;2.33;;
63259;SDS011;49390;51.380;0.098;2023-06-26T10:50:29;7.70;;;2.35;;
63259;SDS011;49390;51.380;0.098;2023-06-26T10:56:02;4.70;;;1.80;;
63259;SDS011;49390;51.380;0.098;2023-06-26T11:03:42;6.20;;;1.92;;
63259;SDS011;49390;51.380;0.098;2023-06-26T11:06:18;7.22;;;2.15;;
63259;SDS011;49390;51.380;0.098;2023-06-26T11:14:25;6.20;;;1.90;;
63259;SDS011;49390;51.380;0.098;2023-06-26T11:16:56;4.97;;;1.85;;
63259;SDS011;49390;51.380;0.098;2023-06-26T11:19:26;4.10;;;1.98;;
63259;SDS011;49390;51.380;0.098;2023-06-26T11:22:04;3.75;;;2.13;;
63259;SDS011;49390;51.380;0.098;2023-06-26T11:24:33;3.30;;;1.85;;
63259;SDS011;49390;51.380;0.098;2023-06-26T11:27:04;4.38;;;1.83;;
63259;SDS011;49390;51.380;0.098;2023-06-26T11:29:32;2.53;;;1.85;;
63259;SDS011;49390;51.380;0.098;2023-06-26T11:32:01;3.05;;;1.88;;
63259;SDS011;49390;51.380;0.098;2023-06-26T11:34:33;6.00;;;2.17;;
63259;SDS011;49390;51.380;0.098;2023-06-26T11:37:02;4.60;;;1.90;;
63259;SDS011;49390;51.380;0.098;2023-06-26T11:39:31;4.15;;;1.90;;
63259;SDS011;49390;51.380;0.098;2023-06-26T11:42:02;3.55;;;1.80;;
63259;SDS011;49390;51.380;0.098;2023-06-26T11:44:30;2.72;;;1.70;;
63259;SDS011;49390;51.380;0.098;2023-06-26T11:47:02;4.95;;;1.80;;
63259;SDS011;49390;51.380;0.098;2023-06-26T11:49:32;5.32;;;1.60;;
63259;SDS011;49390;51.380;0.098;2023-06-26T11:52:02;4.55;;;1.77;;
63259;SDS011;49390;51.380;0.098;2023-06-26T11:54:40;4.30;;;1.90;;
63259;SDS011;49390;51.380;0.098;2023-06-26T11:57:14;3.92;;;1.73;;
63259;SDS011;49390;51.380;0.098;2023-06-26T11:59:43;3.13;;;1.88;;
63259;SDS011;49390;51.380;0.098;2023-06-26T12:02:12;5.68;;;1.90;;
63259;SDS011;49390;51.380;0.098;2023-06-26T12:04:45;4.05;;;1.85;;
63259;SDS011;49390;51.380;0.098;2023-06-26T12:07:16;4.00;;;2.05;;
63259;SDS011;49390;51.380;0.098;2023-06-26T12:09:50;5.60;;;2.10;;
63259;SDS011;49390;51.380;0.098;2023-06-26T12:12:20;5.60;;;1.95;;
63259;SDS011;49390;51.380;0.098;2023-06-26T12:14:52;4.53;;;2.00;;
63259;SDS011;49390;51.380;0.098;2023-06-26T12:17:27;3.78;;;1.85;;
63259;SDS011;49390;51.380;0.098;2023-06-26T12:19:58;4.38;;;1.98;;
63259;SDS011;49390;51.380;0.098;2023-06-26T12:22:33;4.38;;;2.08;;
63259;SDS011;49390;51.380;0.098;2023-06-26T12:25:08;6.18;;;2.03;;
63259;SDS011;49390;51.380;0.098;2023-06-26T12:27:39;7.45;;;1.90;;
63259;SDS011;49390;51.380;0.098;2023-06-26T12:30:09;7.43;;;2.10;;
63259;SDS011;49390;51.380;0.098;2023-06-26T12:32:40;3.97;;;2.00;;
63259;SDS011;49390;51.380;0.098;2023-06-26T12:35:13;3.92;;;1.80;;
63259;SDS011;49390;51.380;0.098;2023-06-26T12:37:43;4.10;;;1.77;;
63259;SDS011;49390;51.380;0.098;2023-06-26T12:40:19;5.53;;;1.98;;
63259;SDS011;49390;51.380;0.098;2023-06-26T12:42:51;5.53;;;1.92;;
63259;SDS011;49390;51.380;0.098;2023-06-26T12:45:25;5.15;;;1.73;;
63259;SDS011;49390;51.380;0.098;2023-06-26T12:48:17;3.60;;;1.80;;
63259;SDS011;49390;51.380;0.098;2023-06-26T12:50:45;3.67;;;1.80;;
63259;SDS011;49390;51.380;0.098;2023-06-26T12:53:20;4.30;;;1.77;;
63259;SDS011;49390;51.380;0.098;2023-06-26T12:55:48;4.20;;;1.80;;
63259;SDS011;49390;51.380;0.098;2023-06-26T12:58:18;4.65;;;2.17;;
63259;SDS011;49390;51.380;0.098;2023-06-26T13:00:46;8.63;;;2.25;;
63259;SDS011;49390;51.380;0.098;2023-06-26T13:03:21;4.93;;;2.08;;
63259;SDS011;49390;51.380;0.098;2023-06-26T13:05:49;8.35;;;2.47;;
63259;SDS011;49390;51.380;0.098;2023-06-26T13:08:17;5.47;;;2.25;;
63259;SDS011;49390;51.380;0.098;2023-06-26T13:10:47;3.45;;;2.00;;
63259;SDS011;49390;51.380;0.098;2023-06-26T13:13:17;4.15;;;2.00;;
63259;SDS011;49390;51.380;0.098;2023-06-26T13:15:45;4.60;;;2.05;;
63259;SDS011;49390;51.380;0.098;2023-06-26T13:18:16;4.25;;;1.90;;
63259;SDS011;49390;51.380;0.098;2023-06-26T13:20:44;5.28;;;2.03;;
63259;SDS011;49390;51.380;0.098;2023-06-26T13:23:14;6.68;;;2.05;;
63259;SDS011;49390;51.380;0.098;2023-06-26T13:25:48;3.60;;;1.98;;
63259;SDS011;49390;51.380;0.098;2023-06-26T13:28:16;4.47;;;2.10;;
63259;SDS011;49390;51.380;0.098;2023-06-26T13:30:49;6.50;;;2.10;;
63259;SDS011;49390;51.380;0.098;2023-06-26T13:33:20;4.43;;;1.90;;
63259;SDS011;49390;51.380;0.098;2023-06-26T13:35:59;3.90;;;2.08;;
63259;SDS011;49390;51.380;0.098;2023-06-26T13:38:34;8.25;;;2.15;;
63259;SDS011;49390;51.380;0.098;2023-06-26T13:41:04;4.30;;;2.10;;
63259;SDS011;49390;51.380;0.098;2023-06-26T13:43:35;9.45;;;2.40;;
63259;SDS011;49390;51.380;0.098;2023-06-26T13:46:06;4.78;;;2.05;;
63259;SDS011;49390;51.380;0.098;2023-06-26T13:48:36;4.93;;;2.35;;
63259;SDS011;49390;51.380;0.098;2023-06-26T13:51:05;5.07;;;2.35;;
63259;SDS011;49390;51.380;0.098;2023-06-26T13:53:34;5.20;;;2.03;;
63259;SDS011;49390;51.380;0.098;2023-06-26T13:56:05;8.43;;;2.53;;
63259;SDS011;49390;51.380;0.098;2023-06-26T13:58:35;6.10;;;2.63;;
63259;SDS011;49390;51.380;0.098;2023-06-26T14:01:04;10.23;;;2.55;;
63259;SDS011;49390;51.380;0.098;2023-06-26T14:03:32;15.25;;;3.22;;
63259;SDS011;49390;51.380;0.098;2023-06-26T14:06:02;7.35;;;2.20;;
63259;SDS011;49390;51.380;0.098;2023-06-26T14:10:59;8.50;;;2.75;;
63259;SDS011;49390;51.380;0.098;2023-06-26T14:13:31;5.25;;;2.50;;
63259;SDS011;49390;51.380;0.098;2023-06-26T14:16:03;9.30;;;2.50;;
63259;SDS011;49390;51.380;0.098;2023-06-26T14:18:37;5.32;;;2.42;;
63259;SDS011;49390;51.380;0.098;2023-06-26T14:21:08;6.43;;;2.67;;
63259;SDS011;49390;51.380;0.098;2023-06-26T14:23:36;6.50;;;2.47;;
63259;SDS011;49390;51.380;0.098;2023-06-26T14:26:07;5.68;;;2.47;;
63259;SDS011;49390;51.380;0.098;2023-06-26T14:28:34;6.75;;;2.50;;
63259;SDS011;49390;51.380;0.098;2023-06-26T14:31:05;7.55;;;2.55;;
63259;SDS011;49390;51.380;0.098;2023-06-26T14:33:35;5.63;;;2.30;;
63259;SDS011;49390;51.380;0.098;2023-06-26T14:36:06;7.63;;;2.55;;
63259;SDS011;49390;51.380;0.098;2023-06-26T14:38:34;6.78;;;2.50;;
63259;SDS011;49390;51.380;0.098;2023-06-26T14:41:02;6.10;;;2.40;;
63259;SDS011;49390;51.380;0.098;2023-06-26T14:43:33;4.07;;;2.25;;
63259;SDS011;49390;51.380;0.098;2023-06-26T14:46:04;5.43;;;2.13;;
63259;SDS011;49390;51.380;0.098;2023-06-26T14:48:37;9.63;;;2.22;;
63259;SDS011;49390;51.380;0.098;2023-06-26T14:51:05;6.60;;;2.20;;
63259;SDS011;49390;51.380;0.098;2023-06-26T14:53:35;6.40;;;2.42;;
63259;SDS011;49390;51.380;0.098;2023-06-26T14:58:25;6.43;;;2.50;;
63259;SDS011;49390;51.380;0.098;2023-06-26T15:00:54;5.03;;;2.15;;
63259;SDS011;49390;51.380;0.098;2023-06-26T15:03:22;6.00;;;2.10;;
63259;SDS011;49390;51.380;0.098;2023-06-26T15:05:52;8.48;;;2.20;;
63259;SDS011;49390;51.380;0.098;2023-06-26T15:08:20;5.10;;;2.13;;
63259;SDS011;49390;51.380;0.098;2023-06-26T15:10:51;5.17;;;2.33;;
63259;SDS011;49390;51.380;0.098;2023-06-26T15:13:21;5.63;;;2.38;;
63259;SDS011;49390;51.380;0.098;2023-06-26T15:15:56;8.52;;;2.40;;
63259;SDS011;49390;51.380;0.098;2023-06-26T15:18:24;4.75;;;1.80;;
63259;SDS011;49390;51.380;0.098;2023-06-26T15:20:54;4.45;;;2.22;;
63259;SDS011;49390;51.380;0.098;2023-06-26T15:23:27;4.80;;;2.30;;
63259;SDS011;49390;51.380;0.098;2023-06-26T15:25:55;5.50;;;2.13;;
63259;SDS011;49390;51.380;0.098;2023-06-26T15:28:25;6.88;;;2.13;;
63259;SDS011;49390;51.380;0.098;2023-06-26T15:30:53;4.78;;;1.90;;
63259;SDS011;49390;51.380;0.098;2023-06-26T15:33:23;6.07;;;2.30;;
63259;SDS011;49390;51.380;0.098;2023-06-26T15:35:56;6.35;;;2.28;;
63259;SDS011;49390;51.380;0.098;2023-06-26T15:38:25;4.93;;;2.00;;
63259;SDS011;49390;51.380;0.098;2023-06-26T15:40:53;8.45;;;2.17;;
63259;SDS011;49390;51.380;0.098;2023-06-26T15:43:21;4.22;;;1.80;;
63259;SDS011;49390;51.380;0.098;2023-06-26T15:45:54;4.05;;;2.00;;
63259;SDS011;49390;51.380;0.098;2023-06-26T15:48:24;4.33;;;2.20;;
63259;SDS011;49390;51.380;0.098;2023-06-26T15:50:56;7.93;;;2.20;;
63259;SDS011;49390;51.380;0.098;2023-06-26T15:53:33;5.65;;;2.10;;
63259;SDS011;49390;51.380;0.098;2023-06-26T15:56:08;4.85;;;2.20;;
63259;SDS011;49390;51.380;0.098;2023-06-26T15:58:40;5.32;;;2.10;;